Taylor Springs, Illinois
Current Conditions -  °F | °C
As of 1:15 AM on Saturday 25 Oct 2014 (Local Time) from K3LF Reporting Station
Scattered Clouds Scattered Clouds  
Wind Chill: 56°   Ceiling: Unl
Heat Index: 56°   Visibility: 10mi
Dew Point: 49°   Wind: 7mph
Humidity: 78%   Direction: 180°S
Pressure: 29.98"   Gusts: NA
Location:  39.13°N, 89.49°W
Report Text: K3LF 250615Z AUTO 18006KT 10SM SCT047 13/09 A2998 RMK AO2 T01320094
Loading
Personal Weather Stations






























Interactive Weather Map
Tropical Storm Tracking
New forecast layout! Learn more

10-Day Weather Forecast

Advertisements
Track Severe Weather on mobile